Time;durP1;ratioP1;P1;durP2;ratioP2;P2;SDS_P1;SDS_P2;PMS_P1;PMS_P2;Temp;Humidity;BMP_temperature;BMP_pressure;BME280_temperature;BME280_humidity;BME280_pressure;Samples;Min_cycle;Max_cycle;Signal;HPM_P1;HPM_P2
2022/08/07 00:01:18;;;;;;;1.63;1.10;;;;;;;-146.72;100.00;64895.28;5071403;28;20606;-72
2022/08/07 00:04:06;;;;;;;2.13;1.40;;;;;;;-146.72;100.00;64895.28;5070664;28;20441;-72
2022/08/07 00:06:37;;;;;;;3.33;1.53;;;;;;;-146.72;100.00;64895.28;5070694;28;20460;-72
2022/08/07 00:09:18;;;;;;;2.90;1.10;;;;;;;-146.72;100.00;64895.28;5071975;28;20486;-72
2022/08/07 00:11:48;;;;;;;1.50;0.90;;;;;;;-146.72;100.00;64895.28;5054413;28;20443;-72
2022/08/07 00:14:23;;;;;;;1.40;1.30;;;;;;;-146.72;100.00;64895.28;5070538;28;20456;-72
2022/08/07 00:16:51;;;;;;;2.17;1.20;;;;;;;-146.72;100.00;64895.28;5087199;28;20453;-72
2022/08/07 00:19:18;;;;;;;2.10;1.40;;;;;;;-146.72;100.00;64895.28;5081134;28;20427;-72
2022/08/07 00:21:51;;;;;;;3.10;1.50;;;;;;;-146.72;100.00;64895.28;5090749;28;20423;-72
2022/08/07 00:24:27;;;;;;;1.53;1.43;;;;;;;-146.72;100.00;64895.28;5090614;28;20491;-72
2022/08/07 00:26:57;;;;;;;2.40;1.23;;;;;;;-146.72;100.00;64895.28;5090392;28;20463;-72
2022/08/07 00:29:33;;;;;;;2.60;1.20;;;;;;;-146.72;100.00;64895.28;5090387;28;20459;-72
2022/08/07 00:32:23;;;;;;;2.30;1.30;;;;;;;-146.72;100.00;64895.28;5090610;28;20419;-71
2022/08/07 00:34:54;;;;;;;1.47;1.37;;;;;;;-146.72;100.00;64895.28;4996878;28;20434;-72
2022/08/07 00:37:21;;;;;;;4.63;1.70;;;;;;;-146.72;100.00;64895.28;5012863;28;20450;-71
2022/08/07 00:39:54;;;;;;;1.47;1.23;;;;;;;-146.72;100.00;64895.28;5008866;28;20444;-72
2022/08/07 00:42:21;;;;;;;1.87;1.10;;;;;;;-146.72;100.00;64895.28;4992899;28;20986;-72
2022/08/07 00:44:54;;;;;;;2.07;1.30;;;;;;;-146.72;100.00;64895.28;5000710;28;20825;-73
2022/08/07 00:47:21;;;;;;;1.33;1.17;;;;;;;-146.72;100.00;64895.28;4997426;28;20451;-72
2022/08/07 00:50:08;;;;;;;2.33;1.60;;;;;;;-146.72;100.00;64895.28;4997585;28;20542;-72
2022/08/07 00:52:55;;;;;;;1.60;1.50;;;;;;;-146.72;100.00;64895.28;5009459;28;20822;-73
2022/08/07 00:55:22;;;;;;;1.47;1.37;;;;;;;-146.72;100.00;64895.28;5009395;28;20742;-73
2022/08/07 00:58:08;;;;;;;1.63;1.40;;;;;;;-146.72;100.00;64895.28;5009377;28;20633;-72
2022/08/07 01:00:36;;;;;;;2.63;1.50;;;;;;;-146.72;100.00;64895.28;4977039;28;20439;-72
2022/08/07 01:03:03;;;;;;;2.80;1.80;;;;;;;-146.72;100.00;64895.28;5009143;28;20447;-72
2022/08/07 01:05:32;;;;;;;1.87;1.50;;;;;;;-146.72;100.00;64895.28;5009087;28;20443;-72
2022/08/07 01:08:03;;;;;;;1.67;1.57;;;;;;;-146.72;100.00;64895.28;4992610;28;20554;-72
2022/08/07 01:10:34;;;;;;;3.30;1.93;;;;;;;-146.72;100.00;64895.28;5009226;28;20922;-72
2022/08/07 01:13:01;;;;;;;2.23;1.30;;;;;;;-146.72;100.00;64895.28;5050507;28;20446;-72
2022/08/07 01:15:32;;;;;;;2.67;1.20;;;;;;;-146.72;100.00;64895.28;5053220;28;20486;-72
2022/08/07 01:18:19;;;;;;;2.47;1.37;;;;;;;-146.72;100.00;64895.28;5070727;28;20461;-72
2022/08/07 01:21:09;;;;;;;2.03;1.43;;;;;;;-146.72;100.00;64895.28;5080646;28;20439;-72
2022/08/07 01:23:55;;;;;;;1.90;1.37;;;;;;;-146.72;100.00;64895.28;5082857;28;20455;-72
2022/08/07 01:26:23;;;;;;;1.40;1.30;;;;;;;-146.72;100.00;64895.28;5073247;28;20431;-72
2022/08/07 01:28:54;;;;;;;1.53;1.43;;;;;;;-146.72;100.00;64895.28;5073595;28;20534;-71
2022/08/07 01:31:27;;;;;;;1.93;1.77;;;;;;;-146.72;100.00;64895.28;5089808;28;20459;-72
2022/08/07 01:34:13;;;;;;;2.17;2.00;;;;;;;-146.72;100.00;64895.28;5089781;28;20443;-72
2022/08/07 01:36:41;;;;;;;2.27;1.80;;;;;;;-146.72;100.00;64895.28;5089689;28;20479;-72
2022/08/07 01:39:16;;;;;;;4.27;2.50;;;;;;;-146.72;100.00;64895.28;5089658;28;20443;-72
2022/08/07 01:41:58;;;;;;;1.70;1.60;;;;;;;-146.72;100.00;64895.28;5089743;28;20439;-72
2022/08/07 01:44:46;;;;;;;3.70;2.00;;;;;;;-146.72;100.00;64895.28;5089635;28;20436;-72
2022/08/07 01:47:14;;;;;;;2.07;1.70;;;;;;;-146.72;100.00;64895.28;5072970;28;20550;-72
2022/08/07 01:50:01;;;;;;;1.90;1.60;;;;;;;-146.72;100.00;64895.28;5089581;28;20466;-72
2022/08/07 01:52:32;;;;;;;1.60;1.50;;;;;;;-146.72;100.00;64895.28;5089551;28;20439;-72
2022/08/07 01:55:01;;;;;;;2.00;1.80;;;;;;;-146.72;100.00;64895.28;5072811;28;20428;-72
2022/08/07 01:57:36;;;;;;;1.87;1.67;;;;;;;-146.72;100.00;64895.28;5073481;28;20476;-72
2022/08/07 02:00:28;;;;;;;1.77;1.67;;;;;;;-146.72;100.00;64895.28;5075604;28;20459;-72
2022/08/07 02:03:08;;;;;;;2.50;2.30;;;;;;;-146.72;100.00;64895.28;5089574;28;20949;-72
2022/08/07 02:05:54;;;;;;;2.30;2.17;;;;;;;-146.72;100.00;64895.28;5089418;28;20432;-72
2022/08/07 02:08:36;;;;;;;2.63;1.80;;;;;;;-146.72;100.00;64895.28;5073818;28;20546;-72
2022/08/07 02:11:06;;;;;;;1.70;1.60;;;;;;;-146.72;100.00;64895.28;5068311;28;20550;-72
2022/08/07 02:13:38;;;;;;;2.00;1.73;;;;;;;-146.72;100.00;64895.28;5069510;28;20436;-71
2022/08/07 02:16:29;;;;;;;1.97;1.87;;;;;;;-146.72;100.00;64895.28;5069187;28;20472;-72
2022/08/07 02:19:06;;;;;;;1.97;1.83;;;;;;;-146.72;100.00;64895.28;5060453;28;20955;-72
2022/08/07 02:21:55;;;;;;;2.17;1.93;;;;;;;-146.72;100.00;64895.28;5089270;28;20440;-72
2022/08/07 02:24:27;;;;;;;1.67;1.57;;;;;;;-146.72;100.00;64895.28;5090238;28;20443;-72
2022/08/07 02:26:59;;;;;;;2.33;2.07;;;;;;;-146.72;100.00;64895.28;5093144;28;20832;-72
2022/08/07 02:29:30;;;;;;;2.27;2.07;;;;;;;-146.72;100.00;64895.28;5092771;28;21039;-72
2022/08/07 02:32:00;;;;;;;2.83;2.10;;;;;;;-146.72;100.00;64895.28;5092849;28;20471;-71
2022/08/07 02:34:28;;;;;;;2.73;2.30;;;;;;;-146.72;100.00;64895.28;5092763;28;20447;-72
2022/08/07 02:37:00;;;;;;;5.20;2.07;;;;;;;-146.72;100.00;64895.28;5076401;28;20509;-72
2022/08/07 02:39:39;;;;;;;5.37;2.30;;;;;;;-146.72;100.00;64895.28;5077139;28;20868;-72
2022/08/07 02:42:29;;;;;;;2.20;2.00;;;;;;;-146.72;100.00;64895.28;5094025;28;20480;-72
2022/08/07 02:45:00;;;;;;;2.33;1.97;;;;;;;-146.72;100.00;64895.28;5092606;28;20511;-72
2022/08/07 02:47:37;;;;;;;3.10;2.43;;;;;;;-146.72;100.00;64895.28;5092476;28;22111;-72
2022/08/07 02:50:15;;;;;;;4.20;2.30;;;;;;;-146.72;100.00;64895.28;5093014;28;20459;-72
2022/08/07 02:52:53;;;;;;;3.50;2.30;;;;;;;-146.72;100.00;64895.28;5092872;28;20455;-72
2022/08/07 02:55:31;;;;;;;2.23;2.10;;;;;;;-146.72;100.00;64895.28;5077309;28;20447;-72
2022/08/07 02:58:21;;;;;;;3.53;2.40;;;;;;;-146.72;100.00;64895.28;5078754;28;20517;-72
2022/08/07 03:00:56;;;;;;;3.60;2.10;;;;;;;-146.72;100.00;64895.28;5076931;28;20427;-72
2022/08/07 03:03:25;;;;;;;2.90;2.10;;;;;;;-146.72;100.00;64895.28;5092646;28;20816;-72
2022/08/07 03:06:14;;;;;;;2.00;1.90;;;;;;;-146.72;100.00;64895.28;5092590;28;21154;-72
2022/08/07 03:08:51;;;;;;;2.80;1.97;;;;;;;-146.72;100.00;64895.28;5092487;28;20437;-72
2022/08/07 03:11:19;;;;;;;4.90;2.47;;;;;;;-146.72;100.00;64895.28;5069363;28;20490;-72
2022/08/07 03:13:51;;;;;;;2.00;1.77;;;;;;;-146.72;100.00;64895.28;5056319;28;20440;-72
2022/08/07 03:16:24;;;;;;;1.83;1.70;;;;;;;-146.72;100.00;64895.28;5056478;28;20444;-72
2022/08/07 03:18:55;;;;;;;2.37;2.00;;;;;;;-146.72;100.00;64895.28;5078001;28;20958;-72
2022/08/07 03:21:23;;;;;;;2.60;2.17;;;;;;;-146.72;100.00;64895.28;5092212;28;20958;-72
2022/08/07 03:23:55;;;;;;;5.10;1.90;;;;;;;-146.72;100.00;64895.28;5092440;28;20797;-72
2022/08/07 03:26:44;;;;;;;1.93;1.83;;;;;;;-146.72;100.00;64895.28;5078153;28;20922;-72
2022/08/07 03:29:26;;;;;;;2.30;2.13;;;;;;;-146.72;100.00;64895.28;5077138;28;20497;-72
2022/08/07 03:31:55;;;;;;;2.50;2.30;;;;;;;-146.72;100.00;64895.28;5092152;28;20432;-72
2022/08/07 03:34:26;;;;;;;3.50;2.10;;;;;;;-146.72;100.00;64895.28;5092057;28;20442;-72
2022/08/07 03:37:01;;;;;;;2.77;2.57;;;;;;;-146.72;100.00;64895.28;5066154;28;20464;-72
2022/08/07 03:39:41;;;;;;;2.90;2.50;;;;;;;-146.72;100.00;64895.28;5071778;28;20536;-72
2022/08/07 03:42:29;;;;;;;3.53;2.50;;;;;;;-146.72;100.00;64895.28;5057906;28;20661;-72
2022/08/07 03:44:58;;;;;;;2.40;1.97;;;;;;;-146.72;100.00;64895.28;5055310;28;20436;-72
2022/08/07 03:47:28;;;;;;;3.03;2.47;;;;;;;-146.72;100.00;64895.28;5071571;28;20511;-72
2022/08/07 03:50:16;;;;;;;2.93;2.60;;;;;;;-146.72;100.00;64895.28;5071544;28;20456;-72
2022/08/07 03:52:51;;;;;;;3.00;2.07;;;;;;;-146.72;100.00;64895.28;5088230;28;20617;-72
2022/08/07 03:55:18;;;;;;;2.43;2.17;;;;;;;-146.72;100.00;64895.28;5071452;28;20445;-72
2022/08/07 03:57:47;;;;;;;3.07;2.77;;;;;;;-146.72;100.00;64895.28;5088171;28;20471;-72
2022/08/07 04:00:37;;;;;;;4.47;2.27;;;;;;;-146.72;100.00;64895.28;5071429;28;20436;-72
2022/08/07 04:03:13;;;;;;;2.93;2.43;;;;;;;-146.72;100.00;64895.28;5055975;28;20515;-72
2022/08/07 04:05:40;;;;;;;5.33;2.70;;;;;;;-146.72;100.00;64895.28;5054718;28;20439;-72
2022/08/07 04:08:17;;;;;;;2.37;2.17;;;;;;;-146.72;100.00;64895.28;5087783;28;20472;-72
2022/08/07 04:10:49;;;;;;;2.60;2.17;;;;;;;-146.72;100.00;64895.28;5071074;28;20469;-72
2022/08/07 04:13:38;;;;;;;2.37;2.17;;;;;;;-146.72;100.00;64895.28;5057483;28;20440;-72
2022/08/07 04:16:26;;;;;;;3.30;2.70;;;;;;;-146.72;100.00;64895.28;5070964;28;20493;-72
2022/08/07 04:19:00;;;;;;;5.67;2.27;;;;;;;-146.72;100.00;64895.28;5068014;28;20792;-72
2022/08/07 04:21:40;;;;;;;2.20;2.00;;;;;;;-146.72;100.00;64895.28;5076016;28;20935;-72
2022/08/07 04:24:32;;;;;;;4.67;2.30;;;;;;;-146.72;100.00;64895.28;5091147;28;20942;-72
2022/08/07 04:27:06;;;;;;;1.90;1.80;;;;;;;-146.72;100.00;64895.28;5091812;28;20477;-72
2022/08/07 04:29:54;;;;;;;2.23;1.90;;;;;;;-146.72;100.00;64895.28;5076998;28;20471;-72
2022/08/07 04:32:45;;;;;;;2.10;2.00;;;;;;;-146.72;100.00;64895.28;5077519;28;20440;-72
2022/08/07 04:35:15;;;;;;;3.00;2.07;;;;;;;-146.72;100.00;64895.28;5082839;28;20441;-72
2022/08/07 04:37:44;;;;;;;2.23;2.03;;;;;;;-146.72;100.00;64895.28;5054073;28;20457;-72
2022/08/07 04:40:31;;;;;;;2.13;1.97;;;;;;;-146.72;100.00;64895.28;5056921;28;20433;-71
2022/08/07 04:42:58;;;;;;;2.50;1.83;;;;;;;-146.72;100.00;64895.28;5070657;28;20959;-71
2022/08/07 04:46:01;;;;;;;1.70;1.60;;;;;;;-146.72;100.00;64895.28;5050568;28;20437;-72
2022/08/07 04:48:37;;;;;;;4.43;2.20;;;;;;;-146.72;100.00;64895.28;5060507;28;20464;-72
2022/08/07 04:51:16;;;;;;;2.03;1.83;;;;;;;-146.72;100.00;64895.28;5070424;28;20500;-72
2022/08/07 04:53:55;;;;;;;2.17;1.97;;;;;;;-146.72;100.00;64895.28;5087290;28;20486;-72
2022/08/07 04:56:45;;;;;;;4.70;2.43;;;;;;;-146.72;100.00;64895.28;5055264;28;20439;-72
2022/08/07 05:00:00;;;;;;;3.53;2.30;;;;;;;-146.72;100.00;64895.28;5070579;28;20486;-72
2022/08/07 05:03:02;;;;;;;3.10;2.00;;;;;;;-146.72;100.00;64895.28;5055901;28;20447;-72
2022/08/07 05:06:04;;;;;;;2.37;2.10;;;;;;;-146.72;100.00;64895.28;5070286;28;20493;-72
2022/08/07 05:08:53;;;;;;;2.80;2.20;;;;;;;-146.72;100.00;64895.28;5070464;28;20441;-72
2022/08/07 05:11:42;;;;;;;3.07;2.87;;;;;;;-146.72;100.00;64895.28;5070331;28;20526;-72
2022/08/07 05:14:32;;;;;;;3.00;2.20;;;;;;;-146.72;100.00;64895.28;5046392;28;20437;-72
2022/08/07 05:17:23;;;;;;;2.43;2.23;;;;;;;-146.72;100.00;64895.28;5070158;28;20468;-72
2022/08/07 05:20:14;;;;;;;4.43;2.37;;;;;;;-146.72;100.00;64895.28;5087464;28;20439;-72
2022/08/07 05:22:44;;;;;;;2.83;2.23;;;;;;;-146.72;100.00;64895.28;5090481;28;20438;-72
2022/08/07 05:25:16;;;;;;;2.47;2.27;;;;;;;-146.72;100.00;64895.28;5090605;28;20440;-72
2022/08/07 05:28:06;;;;;;;2.17;2.07;;;;;;;-146.72;100.00;64895.28;5076576;28;20467;-72
2022/08/07 05:30:48;;;;;;;4.53;1.93;;;;;;;-146.72;100.00;64895.28;5090550;28;20474;-72
2022/08/07 05:33:16;;;;;;;2.43;2.23;;;;;;;-146.72;100.00;64895.28;5090487;28;20847;-72
2022/08/07 05:35:50;;;;;;;2.23;1.93;;;;;;;-146.72;100.00;64895.28;5074337;28;20438;-72
2022/08/07 05:38:20;;;;;;;1.90;1.80;;;;;;;-146.72;100.00;64895.28;5053761;28;20456;-72
2022/08/07 05:41:08;;;;;;;2.57;2.37;;;;;;;-146.72;100.00;64895.28;5056456;28;20451;-72
2022/08/07 05:43:46;;;;;;;2.80;2.00;;;;;;;-146.72;100.00;64895.28;5070412;28;20432;-72
2022/08/07 05:46:36;;;;;;;2.50;2.13;;;;;;;-146.72;100.00;64895.28;5057827;28;20527;-72
2022/08/07 05:49:08;;;;;;;2.30;2.10;;;;;;;-146.72;100.00;64895.28;5070130;28;20437;-72
2022/08/07 05:51:44;;;;;;;2.80;2.60;;;;;;;-146.72;100.00;64895.28;5071020;28;20460;-71
2022/08/07 05:54:16;;;;;;;2.67;2.47;;;;;;;-146.72;100.00;64895.28;5054701;28;20463;-71
2022/08/07 05:56:59;;;;;;;4.67;2.40;;;;;;;-146.72;100.00;64895.28;5070479;28;20457;-71
2022/08/07 05:59:28;;;;;;;2.60;2.07;;;;;;;-146.72;100.00;64895.28;5054853;28;20444;-71
2022/08/07 06:02:15;;;;;;;1.97;1.83;;;;;;;-146.72;100.00;64895.28;5074612;28;20464;-71
2022/08/07 06:05:01;;;;;;;2.90;2.00;;;;;;;-146.72;100.00;64895.28;5076508;28;20417;-71
2022/08/07 06:07:32;;;;;;;2.37;2.17;;;;;;;-146.72;100.00;64895.28;5073261;28;20475;-73
2022/08/07 06:10:20;;;;;;;2.33;2.07;;;;;;;-146.72;100.00;64895.28;5073611;28;20474;-72
2022/08/07 06:12:48;;;;;;;2.80;1.70;;;;;;;-146.72;100.00;64895.28;5057127;28;20436;-72
2022/08/07 06:15:17;;;;;;;1.90;1.70;;;;;;;-146.72;100.00;64895.28;5060930;28;20438;-72
2022/08/07 06:17:47;;;;;;;2.03;1.90;;;;;;;-146.72;100.00;64895.28;5094063;28;20834;-72
2022/08/07 06:20:25;;;;;;;2.03;1.90;;;;;;;-146.72;100.00;64895.28;5058802;28;20431;-72
2022/08/07 06:23:13;;;;;;;2.70;1.93;;;;;;;-146.72;100.00;64895.28;5074167;28;20452;-72
2022/08/07 06:26:01;;;;;;;2.60;1.83;;;;;;;-146.72;100.00;64895.28;5074306;28;20432;-72
2022/08/07 06:28:28;;;;;;;2.73;1.80;;;;;;;-146.72;100.00;64895.28;5064078;28;20451;-72
2022/08/07 06:30:56;;;;;;;1.80;1.70;;;;;;;-146.72;100.00;64895.28;5095650;28;20512;-72
2022/08/07 06:33:26;;;;;;;2.00;1.80;;;;;;;-146.72;100.00;64895.28;5079020;28;20493;-72
2022/08/07 06:35:55;;;;;;;2.03;1.30;;;;;;;-146.72;100.00;64895.28;5080144;28;20439;-72
2022/08/07 06:38:50;;;;;;;1.40;1.30;;;;;;;-146.72;100.00;64895.28;5096060;28;20440;-72
2022/08/07 06:41:48;;;;;;;3.00;1.70;;;;;;;-146.72;100.00;64895.28;5096432;28;20433;-73
2022/08/07 06:44:49;;;;;;;4.80;1.87;;;;;;;-146.72;100.00;64895.28;5096716;28;20504;-72
2022/08/07 06:47:18;;;;;;;1.50;1.40;;;;;;;-146.72;100.00;64895.28;5096574;28;20890;-72
2022/08/07 06:49:55;;;;;;;1.50;1.40;;;;;;;-146.72;100.00;64895.28;5081483;28;20469;-72
2022/08/07 06:52:36;;;;;;;1.63;1.47;;;;;;;-146.72;100.00;64895.28;5079941;28;20976;-73
2022/08/07 06:55:17;;;;;;;1.60;1.50;;;;;;;-146.72;100.00;64895.28;5093946;28;20465;-73
2022/08/07 06:58:09;;;;;;;2.13;1.77;;;;;;;-146.72;100.00;64895.28;5084374;28;21000;-72
2022/08/07 07:00:45;;;;;;;1.83;1.73;;;;;;;-146.72;100.00;64895.28;5087048;28;20433;-72
2022/08/07 07:03:12;;;;;;;2.23;1.60;;;;;;;-146.72;100.00;64895.28;5057066;28;20428;-72
2022/08/07 07:05:44;;;;;;;2.37;1.80;;;;;;;-146.72;100.00;64895.28;5079285;28;20463;-72
2022/08/07 07:08:32;;;;;;;3.20;1.90;;;;;;;-146.72;100.00;64895.28;5080291;28;20479;-73
2022/08/07 07:11:00;;;;;;;2.00;1.63;;;;;;;-146.72;100.00;64895.28;5067411;28;20456;-73
2022/08/07 07:13:52;;;;;;;2.23;1.40;;;;;;;-146.72;100.00;64895.28;5059066;28;20534;-73
2022/08/07 07:16:33;;;;;;;1.30;1.20;;;;;;;-146.72;100.00;64895.28;5072752;28;20427;-73
2022/08/07 07:19:20;;;;;;;2.73;1.20;;;;;;;-146.72;100.00;64895.28;5056752;28;20921;-73
2022/08/07 07:22:08;;;;;;;1.90;1.30;;;;;;;-146.72;100.00;64895.28;5061884;28;20512;-73
2022/08/07 07:24:56;;;;;;;1.77;1.67;;;;;;;-146.72;100.00;64895.28;5071935;28;20443;-73
2022/08/07 07:27:55;;;;;;;2.23;1.40;;;;;;;-146.72;100.00;64895.28;5073313;28;20539;-73
2022/08/07 07:30:34;;;;;;;2.67;1.13;;;;;;;-146.72;100.00;64895.28;5056297;28;20562;-73
2022/08/07 07:33:08;;;;;;;3.27;1.70;;;;;;;-146.72;100.00;64895.28;5072014;28;20478;-73
2022/08/07 07:35:40;;;;;;;1.60;1.50;;;;;;;-146.72;100.00;64895.28;5071777;28;20896;-73
2022/08/07 07:38:27;;;;;;;3.37;1.40;;;;;;;-146.72;100.00;64895.28;5057852;28;20458;-73
2022/08/07 07:40:57;;;;;;;1.40;1.30;;;;;;;-146.72;100.00;64895.28;5071582;28;20519;-73
2022/08/07 07:43:31;;;;;;;1.60;1.50;;;;;;;-146.72;100.00;64895.28;5073196;28;20425;-73
2022/08/07 07:46:21;;;;;;;1.63;1.20;;;;;;;-146.72;100.00;64895.28;5071648;28;20519;-73
2022/08/07 07:49:09;;;;;;;1.70;1.60;;;;;;;-146.72;100.00;64895.28;5087646;28;20447;-73
2022/08/07 07:51:57;;;;;;;5.00;1.90;;;;;;;-146.72;100.00;64895.28;5093101;28;20444;-73
2022/08/07 07:54:26;;;;;;;1.40;1.30;;;;;;;-146.72;100.00;64895.28;5091853;28;20485;-73
2022/08/07 07:56:56;;;;;;;1.50;1.40;;;;;;;-146.72;100.00;64895.28;5093593;28;20951;-73
2022/08/07 07:59:25;;;;;;;1.37;1.20;;;;;;;-146.72;100.00;64895.28;5075751;28;20439;-73
2022/08/07 08:02:14;;;;;;;2.90;2.67;;;;;;;-146.72;100.00;64895.28;5078385;28;20463;-73
2022/08/07 08:05:10;;;;;;;1.70;1.60;;;;;;;-146.72;100.00;64895.28;5093835;28;20775;-74
2022/08/07 08:08:21;;;;;;;1.43;1.33;;;;;;;-146.72;100.00;64895.28;5082012;28;20491;-74
2022/08/07 08:11:11;;;;;;;1.50;1.40;;;;;;;-146.72;100.00;64895.28;5097318;28;20491;-73
2022/08/07 08:14:03;;;;;;;2.20;2.00;;;;;;;-146.72;100.00;64895.28;5064065;28;20456;-72
2022/08/07 08:16:45;;;;;;;1.67;1.57;;;;;;;-146.72;100.00;64895.28;5078849;28;20456;-73
2022/08/07 08:19:25;;;;;;;1.23;1.10;;;;;;;-146.72;100.00;64895.28;5068317;28;20432;-73
2022/08/07 08:28:55;;;;;;;1.60;1.40;;;;;;;-146.72;100.00;64895.28;5061767;28;20428;-73
2022/08/07 08:31:37;;;;;;;1.93;1.83;;;;;;;-146.72;100.00;64895.28;5058218;28;20463;-73
2022/08/07 08:34:54;;;;;;;1.07;0.97;;;;;;;-146.72;100.00;64895.28;5086655;28;20479;-73
2022/08/07 08:37:45;;;;;;;1.57;1.10;;;;;;;-146.72;100.00;64895.28;5072875;28;20447;-73
2022/08/07 08:40:50;;;;;;;1.90;1.60;;;;;;;-146.72;100.00;64895.28;5071861;28;20441;-73
2022/08/07 08:43:56;;;;;;;1.93;1.60;;;;;;;-146.72;100.00;64895.28;5045193;28;20532;-73
2022/08/07 08:46:58;;;;;;;1.23;1.10;;;;;;;-146.72;100.00;64895.28;5070354;28;20432;-73
2022/08/07 08:50:16;;;;;;;1.23;1.07;;;;;;;-146.72;100.00;64895.28;5071047;28;20535;-73
2022/08/07 08:53:43;;;;;;;;;;;;;;;;;;;;;
2022/08/07 08:56:55;;;;;;;1.93;1.47;;;;;;;-146.72;100.00;64895.28;5069989;28;20440;-73
2022/08/07 08:59:53;;;;;;;1.60;1.50;;;;;;;-146.72;100.00;64895.28;5074042;28;20421;-73
2022/08/07 09:03:22;;;;;;;2.60;2.00;;;;;;;-146.72;100.00;64895.28;5064808;28;20412;-73
2022/08/07 09:06:39;;;;;;;1.30;1.20;;;;;;;-146.72;100.00;64895.28;5016233;28;20478;-73
2022/08/07 09:09:59;;;;;;;1.77;1.40;;;;;;;-146.72;100.00;64895.28;5075021;28;20880;-73
2022/08/07 09:12:56;;;;;;;1.30;1.20;;;;;;;-146.72;100.00;64895.28;5057408;28;20458;-73
2022/08/07 09:15:44;;;;;;;1.10;1.00;;;;;;;-146.72;100.00;64895.28;5069070;28;20432;-73
2022/08/07 09:19:13;;;;;;;3.20;1.97;;;;;;;-146.72;100.00;64895.28;5074879;28;20453;-73
2022/08/07 09:22:23;;;;;;;1.30;1.20;;;;;;;-146.72;100.00;64895.28;5076310;28;20442;-73
2022/08/07 09:25:15;;;;;;;3.67;1.37;;;;;;;-146.72;100.00;64895.28;5090128;28;20443;-75
2022/08/07 09:28:03;;;;;;;3.90;1.33;;;;;;;-146.72;100.00;64895.28;5076883;28;20460;-74
2022/08/07 09:30:53;;;;;;;1.13;1.03;;;;;;;-146.72;100.00;64895.28;5092101;28;20408;-74
2022/08/07 09:33:51;;;;;;;1.20;1.10;;;;;;;-146.72;100.00;64895.28;5071910;28;20463;-74
2022/08/07 09:36:35;;;;;;;1.63;1.53;;;;;;;-146.72;100.00;64895.28;5078965;28;20526;-75
2022/08/07 09:39:34;;;;;;;1.23;1.13;;;;;;;-146.72;100.00;64895.28;5065806;28;20448;-74
2022/08/07 09:42:49;;;;;;;2.80;1.40;;;;;;;-146.72;100.00;64895.28;5067268;28;20475;-75
2022/08/07 09:45:38;;;;;;;4.83;1.23;;;;;;;-146.72;100.00;64895.28;5086553;28;20911;-74
2022/08/07 09:48:47;;;;;;;2.60;1.27;;;;;;;-146.72;100.00;64895.28;5054211;28;20544;-75
2022/08/07 09:51:37;;;;;;;1.40;1.30;;;;;;;-146.72;100.00;64895.28;5058262;28;20530;-74
2022/08/07 09:54:32;;;;;;;3.43;1.10;;;;;;;-146.72;100.00;64895.28;5074909;28;20432;-74
2022/08/07 09:57:14;;;;;;;2.17;1.60;;;;;;;-146.72;100.00;64895.28;5073984;28;20464;-74
2022/08/07 10:00:09;;;;;;;1.73;1.13;;;;;;;-146.72;100.00;64895.28;5066650;28;20467;-74
2022/08/07 10:02:55;;;;;;;1.07;0.97;;;;;;;-146.72;100.00;64895.28;5093826;28;20431;-75
2022/08/07 10:05:37;;;;;;;3.70;1.27;;;;;;;-146.72;100.00;64895.28;5077228;28;20566;-74
2022/08/07 10:09:03;;;;;;;1.20;1.10;;;;;;;-146.72;100.00;64895.28;5059644;28;20538;-74
2022/08/07 10:11:49;;;;;;;1.60;1.00;;;;;;;-146.72;100.00;64895.28;5075123;28;20524;-74
2022/08/07 10:14:55;;;;;;;1.43;1.33;;;;;;;-146.72;100.00;64895.28;5059116;28;20531;-72
2022/08/07 10:17:38;;;;;;;4.23;1.27;;;;;;;-146.72;100.00;64895.28;5072807;28;20491;-72
2022/08/07 10:20:50;;;;;;;1.57;1.40;;;;;;;-146.72;100.00;64895.28;5072883;28;20525;-73
2022/08/07 10:23:21;;;;;;;1.43;1.00;;;;;;;-146.72;100.00;64895.28;5074112;28;20475;-72
2022/08/07 10:26:40;;;;;;;1.30;1.20;;;;;;;-146.72;100.00;64895.28;5072924;28;20428;-72
2022/08/07 10:29:37;;;;;;;1.37;1.10;;;;;;;-146.72;100.00;64895.28;5056542;28;20534;-72
2022/08/07 10:32:17;;;;;;;1.90;1.30;;;;;;;-146.72;100.00;64895.28;5063258;28;20455;-72
2022/08/07 10:35:29;;;;;;;1.67;1.50;;;;;;;-146.72;100.00;64895.28;5065216;28;20814;-73
2022/08/07 10:39:03;;;;;;;1.63;1.30;;;;;;;-146.72;100.00;64895.28;5074381;28;20524;-73
2022/08/07 10:41:35;;;;;;;1.50;1.20;;;;;;;-146.72;100.00;64895.28;4985674;28;20537;-73
2022/08/07 10:44:24;;;;;;;2.13;1.27;;;;;;;-146.72;100.00;64895.28;5086699;28;20431;-72
2022/08/07 10:47:31;;;;;;;1.60;1.13;;;;;;;-146.72;100.00;64895.28;5072390;28;20445;-72
2022/08/07 10:50:27;;;;;;;1.33;1.17;;;;;;;-146.72;100.00;64895.28;5084469;28;20481;-73
2022/08/07 10:53:06;;;;;;;2.47;1.53;;;;;;;-146.72;100.00;64895.28;5072432;28;20533;-73
2022/08/07 10:55:40;;;;;;;2.23;1.30;;;;;;;-146.72;100.00;64895.28;5072249;28;20443;-73
2022/08/07 10:58:43;;;;;;;1.23;1.13;;;;;;;-146.72;100.00;64895.28;5072167;28;20525;-72
2022/08/07 11:01:19;;;;;;;1.63;1.27;;;;;;;-146.72;100.00;64895.28;5089138;28;20436;-73
2022/08/07 11:04:16;;;;;;;1.47;1.20;;;;;;;-146.72;100.00;64895.28;5072146;28;20440;-72
2022/08/07 11:07:20;;;;;;;3.13;1.63;;;;;;;-146.72;100.00;64895.28;5071996;28;20460;-72
2022/08/07 11:10:16;;;;;;;1.63;1.20;;;;;;;-146.72;100.00;64895.28;5058069;28;20482;-72
2022/08/07 11:12:51;;;;;;;1.20;1.10;;;;;;;-146.72;100.00;64895.28;5071913;28;20448;-73
2022/08/07 11:15:37;;;;;;;2.43;1.20;;;;;;;-146.72;100.00;64895.28;5071940;28;21058;-73
2022/08/07 11:18:03;;;;;;;1.27;1.17;;;;;;;-146.72;100.00;64895.28;5071996;28;20448;-72
2022/08/07 11:20:42;;;;;;;1.93;1.40;;;;;;;-146.72;100.00;64895.28;5041984;28;20436;-73
2022/08/07 11:23:27;;;;;;;1.47;1.37;;;;;;;-146.72;100.00;64895.28;5073424;28;20432;-73
2022/08/07 11:26:19;;;;;;;1.83;1.30;;;;;;;-146.72;100.00;64895.28;5091700;28;20990;-73
2022/08/07 11:28:57;;;;;;;1.83;1.30;;;;;;;-146.72;100.00;64895.28;5083832;28;20440;-73
2022/08/07 11:31:42;;;;;;;1.30;1.13;;;;;;;-146.72;100.00;64895.28;5071587;28;20468;-73
2022/08/07 11:34:31;;;;;;;1.93;1.27;;;;;;;-146.72;100.00;64895.28;5055611;28;20446;-72
2022/08/07 11:37:11;;;;;;;1.40;1.30;;;;;;;-146.72;100.00;64895.28;5054905;28;20471;-72
2022/08/07 11:40:04;;;;;;;1.37;1.27;;;;;;;-146.72;100.00;64895.28;5072663;28;20421;-73
2022/08/07 11:42:39;;;;;;;1.30;1.20;;;;;;;-146.72;100.00;64895.28;5071899;28;20471;-72
2022/08/07 11:45:29;;;;;;;2.13;1.40;;;;;;;-146.72;100.00;64895.28;5071145;28;20490;-73
2022/08/07 11:48:30;;;;;;;1.30;1.20;;;;;;;-146.72;100.00;64895.28;5087906;28;20457;-73
2022/08/07 11:51:12;;;;;;;2.93;2.43;;;;;;;-146.72;100.00;64895.28;5071074;28;20439;-73
2022/08/07 11:54:17;;;;;;;1.27;1.10;;;;;;;-146.72;100.00;64895.28;5071427;28;20929;-73
2022/08/07 11:57:01;;;;;;;1.20;1.10;;;;;;;-146.72;100.00;64895.28;5071590;28;20448;-73
2022/08/07 11:59:46;;;;;;;1.30;1.20;;;;;;;-146.72;100.00;64895.28;5052260;28;20524;-73
2022/08/07 12:02:51;;;;;;;2.03;1.40;;;;;;;-146.72;100.00;64895.28;5074041;28;20434;-73
2022/08/07 12:05:41;;;;;;;1.40;1.30;;;;;;;-146.72;100.00;64895.28;5091056;28;20436;-73
2022/08/07 12:08:18;;;;;;;3.00;1.30;;;;;;;-146.72;100.00;64895.28;5091008;28;21081;-72
2022/08/07 12:11:06;;;;;;;2.43;1.50;;;;;;;-146.72;100.00;64895.28;5087341;28;20451;-73
2022/08/07 12:13:47;;;;;;;1.90;1.40;;;;;;;-146.72;100.00;64895.28;5070557;28;20556;-72
2022/08/07 12:16:19;;;;;;;1.30;1.20;;;;;;;-146.72;100.00;64895.28;5087528;28;20445;-73
2022/08/07 12:19:21;;;;;;;1.20;1.10;;;;;;;;;;5110060;27;20595;-74
2022/08/07 12:22:09;;;;;;;1.43;1.20;;;;;;;;;;5107794;28;20483;-74
2022/08/07 12:28:13;;;;;;;1.23;1.13;;;;;;;;;;5107450;28;20455;-74
2022/08/07 12:30:41;;;;;;;3.30;1.33;;;;;;;;;;5090820;28;20431;-74
2022/08/07 12:33:17;;;;;;;1.10;1.00;;;;;;;;;;5091177;28;20474;-74
2022/08/07 12:35:56;;;;;;;1.60;1.50;;;;;;;;;;5092043;28;20480;-74
2022/08/07 12:38:28;;;;;;;1.53;1.33;;;;;;;;;;5107363;28;20539;-74